Impacts TAF Board INFO
FOR SITUATIONAL AWARENESS. NOT TO BE USED FOR FLIGHT PLANNING PURPOSES.
IDs:

KDTW - Detroit Metro/Wayne, MI, US

Issued at 2320 UTC 16 Dec 2017
Updated at 0229 UTC 17 Dec 2017
Potential Impact None Slight Moderate High
Time0153Z 17/03Z 17/04Z 17/05Z 17/06Z 17/07Z 17/08Z 17/09Z 17/10Z 17/11Z 17/12Z 17/13Z 17/14Z 17/15Z>>
Type OBS PRVL PRVL PRVL PRVL PRVL PRVL PRVL PRVL PRVL PRVL PRVL PRVL PRVL
VIS 10 >6 >6 >6 >6 >6 >6 >6 >6 >6 >6 >6 >6 >6
CIG 70 20 20 20 20 20 20 20 12 12 12 12 12 12
Cover OVC OVC OVC OVC OVC OVC OVC OVC OVC OVC OVC OVC OVC OVC
FltCat VFR MVFR MVFR MVFR MVFR MVFR MVFR MVFR MVFR MVFR MVFR MVFR MVFR MVFR
WX -- -- -- -- -- -- -- -- -- -- -- -- -- --
WDir 70 30 30 30 30 30 30 30 90 90 90 90 90 90
WSpd 6 5 5 5 5 5 5 5 5 5 5 5 5 5
WGst -- -- -- -- -- -- -- -- -- -- -- -- -- --

Raw TAF
KDTW 162320Z 1700/1806 05007KT P6SM SCT020 BKN080
  FM170300 03005KT P6SM OVC020
  FM171000 09005KT P6SM OVC012
  FM172300 18007KT 5SM BR OVC007


Raw METAR
KDTW 170153Z 07006KT 10SM BKN070 OVC100 M01/M05 A3015 RMK AO2 SLP216 T10111050
KDTW 170053Z 06007KT 10SM BKN070 OVC090 M01/M05 A3014 RMK AO2 SLP213 T10111050
KDTW 162353Z 06006KT 8SM OVC070 M01/M05 A3012 RMK AO2 SLP205 T10111050 10006 21011 51028

METAR Board
Radar Display
Forecast Discussion

FOR SITUATIONAL AWARENESS. NOT TO BE USED FOR FLIGHT PLANNING PURPOSES.